sensor_id;sensor_type;location;lat;lon;timestamp;P1;durP1;ratioP1;P2;durP2;ratioP2
38224;SDS011;24025;48.138;11.428;2022-12-07T00:02:01;6.75;;;4.60;;
38224;SDS011;24025;48.138;11.428;2022-12-07T00:04:31;6.95;;;4.82;;
38224;SDS011;24025;48.138;11.428;2022-12-07T00:07:02;7.55;;;5.15;;
38224;SDS011;24025;48.138;11.428;2022-12-07T00:09:32;7.40;;;4.90;;
38224;SDS011;24025;48.138;11.428;2022-12-07T00:12:03;7.95;;;4.68;;
38224;SDS011;24025;48.138;11.428;2022-12-07T00:14:33;8.75;;;5.35;;
38224;SDS011;24025;48.138;11.428;2022-12-07T00:17:04;8.20;;;4.50;;
38224;SDS011;24025;48.138;11.428;2022-12-07T00:19:34;8.02;;;4.45;;
38224;SDS011;24025;48.138;11.428;2022-12-07T00:22:04;6.88;;;4.97;;
38224;SDS011;24025;48.138;11.428;2022-12-07T00:24:35;7.85;;;5.03;;
38224;SDS011;24025;48.138;11.428;2022-12-07T00:27:05;7.20;;;4.82;;
38224;SDS011;24025;48.138;11.428;2022-12-07T00:29:35;6.88;;;4.43;;
38224;SDS011;24025;48.138;11.428;2022-12-07T00:32:06;6.45;;;4.32;;
38224;SDS011;24025;48.138;11.428;2022-12-07T00:34:37;8.90;;;5.00;;
38224;SDS011;24025;48.138;11.428;2022-12-07T00:37:07;7.97;;;5.03;;
38224;SDS011;24025;48.138;11.428;2022-12-07T00:39:38;11.88;;;5.15;;
38224;SDS011;24025;48.138;11.428;2022-12-07T00:42:08;6.78;;;4.57;;
38224;SDS011;24025;48.138;11.428;2022-12-07T00:44:38;7.90;;;5.28;;
38224;SDS011;24025;48.138;11.428;2022-12-07T00:47:09;5.53;;;4.28;;
38224;SDS011;24025;48.138;11.428;2022-12-07T00:49:40;7.20;;;4.82;;
38224;SDS011;24025;48.138;11.428;2022-12-07T00:52:10;7.10;;;4.60;;
38224;SDS011;24025;48.138;11.428;2022-12-07T00:54:41;8.13;;;4.75;;
38224;SDS011;24025;48.138;11.428;2022-12-07T00:57:11;7.13;;;4.53;;
38224;SDS011;24025;48.138;11.428;2022-12-07T00:59:41;7.60;;;4.47;;
38224;SDS011;24025;48.138;11.428;2022-12-07T01:02:12;7.30;;;4.25;;
38224;SDS011;24025;48.138;11.428;2022-12-07T01:04:42;7.80;;;4.68;;
38224;SDS011;24025;48.138;11.428;2022-12-07T01:07:12;7.75;;;4.32;;
38224;SDS011;24025;48.138;11.428;2022-12-07T01:09:43;8.18;;;4.95;;
38224;SDS011;24025;48.138;11.428;2022-12-07T01:12:13;6.78;;;4.65;;
38224;SDS011;24025;48.138;11.428;2022-12-07T01:14:44;6.80;;;4.55;;
38224;SDS011;24025;48.138;11.428;2022-12-07T01:17:14;6.38;;;4.07;;
38224;SDS011;24025;48.138;11.428;2022-12-07T01:19:44;8.85;;;4.78;;
38224;SDS011;24025;48.138;11.428;2022-12-07T01:22:15;6.60;;;4.45;;
38224;SDS011;24025;48.138;11.428;2022-12-07T01:24:45;6.35;;;4.63;;
38224;SDS011;24025;48.138;11.428;2022-12-07T01:27:16;7.20;;;4.35;;
38224;SDS011;24025;48.138;11.428;2022-12-07T01:29:47;7.65;;;4.65;;
38224;SDS011;24025;48.138;11.428;2022-12-07T01:32:17;8.85;;;4.53;;
38224;SDS011;24025;48.138;11.428;2022-12-07T01:34:48;7.78;;;5.25;;
38224;SDS011;24025;48.138;11.428;2022-12-07T01:37:18;6.28;;;4.47;;
38224;SDS011;24025;48.138;11.428;2022-12-07T01:39:49;6.35;;;4.25;;
38224;SDS011;24025;48.138;11.428;2022-12-07T01:42:20;7.82;;;4.80;;
38224;SDS011;24025;48.138;11.428;2022-12-07T01:48:08;6.45;;;4.57;;
38224;SDS011;24025;48.138;11.428;2022-12-07T01:50:41;5.60;;;4.15;;
38224;SDS011;24025;48.138;11.428;2022-12-07T01:53:13;7.47;;;4.70;;
38224;SDS011;24025;48.138;11.428;2022-12-07T01:55:45;7.78;;;4.90;;
38224;SDS011;24025;48.138;11.428;2022-12-07T01:58:22;7.53;;;4.30;;
38224;SDS011;24025;48.138;11.428;2022-12-07T02:00:53;8.82;;;5.03;;
38224;SDS011;24025;48.138;11.428;2022-12-07T02:03:24;7.78;;;4.47;;
38224;SDS011;24025;48.138;11.428;2022-12-07T02:06:00;6.95;;;5.05;;
38224;SDS011;24025;48.138;11.428;2022-12-07T02:08:30;7.53;;;4.22;;
38224;SDS011;24025;48.138;11.428;2022-12-07T02:11:02;6.82;;;4.57;;
38224;SDS011;24025;48.138;11.428;2022-12-07T02:16:24;6.78;;;4.07;;
38224;SDS011;24025;48.138;11.428;2022-12-07T02:19:03;7.60;;;4.78;;
38224;SDS011;24025;48.138;11.428;2022-12-07T02:32:43;9.48;;;5.03;;
38224;SDS011;24025;48.138;11.428;2022-12-07T02:40:55;7.88;;;4.60;;
38224;SDS011;24025;48.138;11.428;2022-12-07T02:43:39;7.47;;;4.68;;
38224;SDS011;24025;48.138;11.428;2022-12-07T02:46:15;8.93;;;5.15;;
38224;SDS011;24025;48.138;11.428;2022-12-07T02:48:50;7.95;;;5.00;;
38224;SDS011;24025;48.138;11.428;2022-12-07T02:51:22;7.82;;;5.28;;
38224;SDS011;24025;48.138;11.428;2022-12-07T02:53:52;6.88;;;4.80;;
38224;SDS011;24025;48.138;11.428;2022-12-07T03:05:12;5.90;;;4.28;;
38224;SDS011;24025;48.138;11.428;2022-12-07T03:07:59;6.57;;;4.65;;
38224;SDS011;24025;48.138;11.428;2022-12-07T03:16:05;8.57;;;4.60;;
38224;SDS011;24025;48.138;11.428;2022-12-07T03:18:55;7.93;;;4.80;;
38224;SDS011;24025;48.138;11.428;2022-12-07T03:21:31;7.05;;;4.22;;
38224;SDS011;24025;48.138;11.428;2022-12-07T03:24:09;7.40;;;4.38;;
38224;SDS011;24025;48.138;11.428;2022-12-07T03:26:45;7.88;;;4.97;;
38224;SDS011;24025;48.138;11.428;2022-12-07T03:29:25;6.05;;;4.05;;
38224;SDS011;24025;48.138;11.428;2022-12-07T03:32:00;6.35;;;4.93;;
38224;SDS011;24025;48.138;11.428;2022-12-07T03:34:41;7.13;;;4.78;;
38224;SDS011;24025;48.138;11.428;2022-12-07T03:37:41;12.35;;;5.10;;
38224;SDS011;24025;48.138;11.428;2022-12-07T03:40:50;7.13;;;4.78;;
38224;SDS011;24025;48.138;11.428;2022-12-07T03:43:21;8.77;;;4.68;;
38224;SDS011;24025;48.138;11.428;2022-12-07T03:48:40;8.68;;;5.43;;
38224;SDS011;24025;48.138;11.428;2022-12-07T03:54:02;7.38;;;4.82;;
38224;SDS011;24025;48.138;11.428;2022-12-07T03:56:40;8.65;;;5.15;;
38224;SDS011;24025;48.138;11.428;2022-12-07T03:59:13;7.93;;;5.07;;
38224;SDS011;24025;48.138;11.428;2022-12-07T04:01:51;9.27;;;5.80;;
38224;SDS011;24025;48.138;11.428;2022-12-07T04:04:24;9.90;;;5.57;;
38224;SDS011;24025;48.138;11.428;2022-12-07T04:06:55;10.80;;;5.53;;
38224;SDS011;24025;48.138;11.428;2022-12-07T04:09:26;8.13;;;5.53;;
38224;SDS011;24025;48.138;11.428;2022-12-07T04:11:56;7.50;;;5.63;;
38224;SDS011;24025;48.138;11.428;2022-12-07T04:14:27;9.85;;;6.00;;
38224;SDS011;24025;48.138;11.428;2022-12-07T04:16:58;7.85;;;5.65;;
38224;SDS011;24025;48.138;11.428;2022-12-07T04:19:30;9.02;;;4.85;;
38224;SDS011;24025;48.138;11.428;2022-12-07T04:22:02;8.05;;;5.70;;
38224;SDS011;24025;48.138;11.428;2022-12-07T04:27:04;7.85;;;5.55;;
38224;SDS011;24025;48.138;11.428;2022-12-07T04:29:34;7.63;;;5.97;;
38224;SDS011;24025;48.138;11.428;2022-12-07T04:32:05;7.78;;;5.35;;
38224;SDS011;24025;48.138;11.428;2022-12-07T04:34:35;9.35;;;5.63;;
38224;SDS011;24025;48.138;11.428;2022-12-07T04:37:06;9.02;;;5.70;;
38224;SDS011;24025;48.138;11.428;2022-12-07T04:39:36;14.43;;;6.65;;
38224;SDS011;24025;48.138;11.428;2022-12-07T04:42:07;9.93;;;6.15;;
38224;SDS011;24025;48.138;11.428;2022-12-07T04:44:37;8.05;;;5.05;;
38224;SDS011;24025;48.138;11.428;2022-12-07T04:47:07;7.50;;;5.07;;
38224;SDS011;24025;48.138;11.428;2022-12-07T04:49:38;10.25;;;5.80;;
38224;SDS011;24025;48.138;11.428;2022-12-07T04:52:08;8.93;;;5.68;;
38224;SDS011;24025;48.138;11.428;2022-12-07T04:54:38;10.30;;;5.65;;
38224;SDS011;24025;48.138;11.428;2022-12-07T04:57:09;7.85;;;5.30;;
38224;SDS011;24025;48.138;11.428;2022-12-07T04:59:39;9.75;;;5.80;;
38224;SDS011;24025;48.138;11.428;2022-12-07T05:02:10;7.95;;;5.32;;
38224;SDS011;24025;48.138;11.428;2022-12-07T05:04:40;9.35;;;5.60;;
38224;SDS011;24025;48.138;11.428;2022-12-07T05:07:10;9.73;;;6.70;;
38224;SDS011;24025;48.138;11.428;2022-12-07T05:09:41;11.00;;;5.88;;
38224;SDS011;24025;48.138;11.428;2022-12-07T05:12:11;16.15;;;8.85;;
38224;SDS011;24025;48.138;11.428;2022-12-07T05:14:41;14.93;;;7.97;;
38224;SDS011;24025;48.138;11.428;2022-12-07T05:17:12;10.43;;;6.65;;
38224;SDS011;24025;48.138;11.428;2022-12-07T05:19:42;12.25;;;7.03;;
38224;SDS011;24025;48.138;11.428;2022-12-07T05:22:13;11.95;;;7.22;;
38224;SDS011;24025;48.138;11.428;2022-12-07T05:24:44;8.50;;;5.80;;
38224;SDS011;24025;48.138;11.428;2022-12-07T05:27:14;9.07;;;5.95;;
38224;SDS011;24025;48.138;11.428;2022-12-07T05:29:44;8.70;;;5.72;;
38224;SDS011;24025;48.138;11.428;2022-12-07T05:32:15;9.50;;;6.03;;
38224;SDS011;24025;48.138;11.428;2022-12-07T05:34:45;9.73;;;6.60;;
38224;SDS011;24025;48.138;11.428;2022-12-07T05:37:16;11.90;;;5.78;;
38224;SDS011;24025;48.138;11.428;2022-12-07T05:39:46;9.82;;;5.93;;
38224;SDS011;24025;48.138;11.428;2022-12-07T05:42:16;9.60;;;5.80;;
38224;SDS011;24025;48.138;11.428;2022-12-07T05:44:47;11.10;;;6.35;;
38224;SDS011;24025;48.138;11.428;2022-12-07T05:47:17;12.50;;;5.80;;
38224;SDS011;24025;48.138;11.428;2022-12-07T05:49:48;9.43;;;6.20;;
38224;SDS011;24025;48.138;11.428;2022-12-07T05:52:18;11.27;;;6.18;;
38224;SDS011;24025;48.138;11.428;2022-12-07T05:54:49;9.35;;;5.18;;
38224;SDS011;24025;48.138;11.428;2022-12-07T05:57:19;9.43;;;5.75;;
38224;SDS011;24025;48.138;11.428;2022-12-07T05:59:50;8.32;;;5.20;;
38224;SDS011;24025;48.138;11.428;2022-12-07T06:02:20;8.52;;;5.60;;
38224;SDS011;24025;48.138;11.428;2022-12-07T06:04:51;12.05;;;6.50;;
38224;SDS011;24025;48.138;11.428;2022-12-07T06:07:21;11.73;;;6.20;;
38224;SDS011;24025;48.138;11.428;2022-12-07T06:09:51;8.88;;;5.85;;
38224;SDS011;24025;48.138;11.428;2022-12-07T06:12:22;11.00;;;5.68;;
38224;SDS011;24025;48.138;11.428;2022-12-07T06:15:05;9.55;;;6.13;;
38224;SDS011;24025;48.138;11.428;2022-12-07T06:17:36;9.05;;;6.47;;
38224;SDS011;24025;48.138;11.428;2022-12-07T06:20:06;9.38;;;6.35;;
38224;SDS011;24025;48.138;11.428;2022-12-07T06:22:37;11.63;;;6.80;;
38224;SDS011;24025;48.138;11.428;2022-12-07T06:25:08;8.85;;;6.30;;
38224;SDS011;24025;48.138;11.428;2022-12-07T06:27:38;10.02;;;6.95;;
38224;SDS011;24025;48.138;11.428;2022-12-07T06:30:09;8.48;;;6.05;;
38224;SDS011;24025;48.138;11.428;2022-12-07T06:32:39;8.50;;;6.07;;
38224;SDS011;24025;48.138;11.428;2022-12-07T06:35:10;8.55;;;5.95;;
38224;SDS011;24025;48.138;11.428;2022-12-07T06:37:40;9.57;;;6.57;;
38224;SDS011;24025;48.138;11.428;2022-12-07T06:40:10;10.02;;;6.55;;
38224;SDS011;24025;48.138;11.428;2022-12-07T06:42:41;7.43;;;5.53;;
38224;SDS011;24025;48.138;11.428;2022-12-07T06:45:11;10.57;;;6.05;;
38224;SDS011;24025;48.138;11.428;2022-12-07T06:47:42;8.45;;;5.43;;
38224;SDS011;24025;48.138;11.428;2022-12-07T06:50:12;11.13;;;6.97;;
38224;SDS011;24025;48.138;11.428;2022-12-07T06:52:42;10.52;;;6.65;;
38224;SDS011;24025;48.138;11.428;2022-12-07T06:55:13;9.85;;;5.88;;
38224;SDS011;24025;48.138;11.428;2022-12-07T06:57:43;9.80;;;6.35;;
38224;SDS011;24025;48.138;11.428;2022-12-07T07:00:14;9.50;;;5.97;;
38224;SDS011;24025;48.138;11.428;2022-12-07T07:02:44;9.95;;;6.32;;
38224;SDS011;24025;48.138;11.428;2022-12-07T07:05:15;12.23;;;7.13;;
38224;SDS011;24025;48.138;11.428;2022-12-07T07:07:46;11.10;;;6.70;;
38224;SDS011;24025;48.138;11.428;2022-12-07T07:10:17;11.32;;;6.93;;
38224;SDS011;24025;48.138;11.428;2022-12-07T07:12:48;9.40;;;6.75;;
38224;SDS011;24025;48.138;11.428;2022-12-07T07:15:18;12.65;;;7.63;;
38224;SDS011;24025;48.138;11.428;2022-12-07T07:17:49;9.88;;;6.60;;
38224;SDS011;24025;48.138;11.428;2022-12-07T07:20:19;9.18;;;6.43;;
38224;SDS011;24025;48.138;11.428;2022-12-07T07:22:49;10.40;;;6.85;;
38224;SDS011;24025;48.138;11.428;2022-12-07T07:25:20;11.45;;;6.60;;
38224;SDS011;24025;48.138;11.428;2022-12-07T07:27:50;10.20;;;7.25;;
38224;SDS011;24025;48.138;11.428;2022-12-07T07:30:21;11.20;;;7.35;;
38224;SDS011;24025;48.138;11.428;2022-12-07T07:32:51;13.85;;;7.72;;
38224;SDS011;24025;48.138;11.428;2022-12-07T07:35:27;10.07;;;7.40;;
38224;SDS011;24025;48.138;11.428;2022-12-07T07:37:59;9.98;;;7.15;;
38224;SDS011;24025;48.138;11.428;2022-12-07T07:40:30;12.25;;;7.70;;
38224;SDS011;24025;48.138;11.428;2022-12-07T07:43:00;12.63;;;7.55;;
38224;SDS011;24025;48.138;11.428;2022-12-07T07:45:30;11.32;;;7.53;;
38224;SDS011;24025;48.138;11.428;2022-12-07T07:48:01;13.63;;;7.53;;
38224;SDS011;24025;48.138;11.428;2022-12-07T07:50:31;12.93;;;8.55;;
38224;SDS011;24025;48.138;11.428;2022-12-07T07:53:02;10.18;;;7.28;;
38224;SDS011;24025;48.138;11.428;2022-12-07T07:55:32;14.38;;;7.38;;
38224;SDS011;24025;48.138;11.428;2022-12-07T07:58:02;11.73;;;7.82;;
38224;SDS011;24025;48.138;11.428;2022-12-07T08:00:33;12.43;;;7.50;;
38224;SDS011;24025;48.138;11.428;2022-12-07T08:03:03;12.52;;;7.72;;
38224;SDS011;24025;48.138;11.428;2022-12-07T08:05:34;20.38;;;7.63;;
38224;SDS011;24025;48.138;11.428;2022-12-07T08:08:06;11.80;;;7.65;;
38224;SDS011;24025;48.138;11.428;2022-12-07T08:10:36;11.73;;;7.22;;
38224;SDS011;24025;48.138;11.428;2022-12-07T08:13:07;16.25;;;9.05;;
38224;SDS011;24025;48.138;11.428;2022-12-07T08:15:41;14.45;;;8.70;;
38224;SDS011;24025;48.138;11.428;2022-12-07T08:18:16;12.98;;;8.48;;
38224;SDS011;24025;48.138;11.428;2022-12-07T08:20:46;14.77;;;8.73;;
38224;SDS011;24025;48.138;11.428;2022-12-07T08:23:17;12.70;;;8.32;;
38224;SDS011;24025;48.138;11.428;2022-12-07T08:25:47;12.43;;;8.38;;
38224;SDS011;24025;48.138;11.428;2022-12-07T08:28:18;12.25;;;7.57;;
38224;SDS011;24025;48.138;11.428;2022-12-07T08:30:48;13.43;;;8.88;;
38224;SDS011;24025;48.138;11.428;2022-12-07T08:33:19;12.27;;;7.40;;
38224;SDS011;24025;48.138;11.428;2022-12-07T08:35:52;11.00;;;7.72;;
38224;SDS011;24025;48.138;11.428;2022-12-07T08:38:22;12.85;;;8.48;;
38224;SDS011;24025;48.138;11.428;2022-12-07T08:40:53;12.05;;;8.00;;
38224;SDS011;24025;48.138;11.428;2022-12-07T08:43:25;11.95;;;8.20;;
38224;SDS011;24025;48.138;11.428;2022-12-07T08:48:36;13.82;;;8.80;;
38224;SDS011;24025;48.138;11.428;2022-12-07T08:51:11;12.82;;;8.43;;
38224;SDS011;24025;48.138;11.428;2022-12-07T08:53:41;12.65;;;8.15;;
38224;SDS011;24025;48.138;11.428;2022-12-07T08:56:13;14.85;;;9.13;;
38224;SDS011;24025;48.138;11.428;2022-12-07T08:58:43;8.98;;;6.75;;
38224;SDS011;24025;48.138;11.428;2022-12-07T09:01:14;13.70;;;8.02;;
38224;SDS011;24025;48.138;11.428;2022-12-07T09:03:44;13.48;;;8.27;;
38224;SDS011;24025;48.138;11.428;2022-12-07T09:06:15;13.25;;;8.50;;
38224;SDS011;24025;48.138;11.428;2022-12-07T09:08:46;15.35;;;7.93;;
38224;SDS011;24025;48.138;11.428;2022-12-07T09:11:20;12.80;;;8.23;;
38224;SDS011;24025;48.138;11.428;2022-12-07T09:13:50;14.93;;;8.75;;
38224;SDS011;24025;48.138;11.428;2022-12-07T09:16:20;11.73;;;7.88;;
38224;SDS011;24025;48.138;11.428;2022-12-07T09:18:51;11.82;;;8.20;;
38224;SDS011;24025;48.138;11.428;2022-12-07T09:21:21;12.68;;;8.38;;
38224;SDS011;24025;48.138;11.428;2022-12-07T09:23:52;12.70;;;8.40;;
38224;SDS011;24025;48.138;11.428;2022-12-07T09:26:22;13.15;;;8.55;;
38224;SDS011;24025;48.138;11.428;2022-12-07T09:28:52;12.50;;;8.15;;
38224;SDS011;24025;48.138;11.428;2022-12-07T09:31:23;11.05;;;7.95;;
38224;SDS011;24025;48.138;11.428;2022-12-07T09:33:54;13.20;;;8.75;;
38224;SDS011;24025;48.138;11.428;2022-12-07T09:36:28;14.80;;;8.63;;
38224;SDS011;24025;48.138;11.428;2022-12-07T09:38:59;14.77;;;9.13;;
38224;SDS011;24025;48.138;11.428;2022-12-07T09:41:30;13.40;;;8.80;;
38224;SDS011;24025;48.138;11.428;2022-12-07T09:44:06;13.13;;;8.95;;
38224;SDS011;24025;48.138;11.428;2022-12-07T09:46:44;14.82;;;8.00;;
38224;SDS011;24025;48.138;11.428;2022-12-07T09:49:16;10.90;;;8.02;;
38224;SDS011;24025;48.138;11.428;2022-12-07T09:51:59;13.30;;;8.85;;
38224;SDS011;24025;48.138;11.428;2022-12-07T09:54:33;15.00;;;8.38;;
38224;SDS011;24025;48.138;11.428;2022-12-07T09:57:07;13.70;;;8.30;;
38224;SDS011;24025;48.138;11.428;2022-12-07T09:59:39;13.13;;;8.77;;
38224;SDS011;24025;48.138;11.428;2022-12-07T10:05:13;13.35;;;7.95;;
38224;SDS011;24025;48.138;11.428;2022-12-07T10:07:45;12.50;;;7.68;;
38224;SDS011;24025;48.138;11.428;2022-12-07T10:10:17;14.77;;;9.80;;
38224;SDS011;24025;48.138;11.428;2022-12-07T10:15:48;12.18;;;7.72;;
38224;SDS011;24025;48.138;11.428;2022-12-07T10:18:29;11.07;;;7.18;;
38224;SDS011;24025;48.138;11.428;2022-12-07T10:23:43;11.23;;;6.32;;
38224;SDS011;24025;48.138;11.428;2022-12-07T10:26:34;9.95;;;6.88;;
38224;SDS011;24025;48.138;11.428;2022-12-07T10:31:47;14.98;;;8.90;;
38224;SDS011;24025;48.138;11.428;2022-12-07T10:34:34;10.05;;;7.00;;
38224;SDS011;24025;48.138;11.428;2022-12-07T10:37:11;13.00;;;7.25;;
38224;SDS011;24025;48.138;11.428;2022-12-07T10:39:53;10.82;;;7.18;;
38224;SDS011;24025;48.138;11.428;2022-12-07T10:42:34;11.88;;;8.15;;
38224;SDS011;24025;48.138;11.428;2022-12-07T10:45:09;10.07;;;6.57;;
38224;SDS011;24025;48.138;11.428;2022-12-07T10:47:52;9.82;;;6.32;;
38224;SDS011;24025;48.138;11.428;2022-12-07T10:53:33;11.48;;;6.32;;
38224;SDS011;24025;48.138;11.428;2022-12-07T10:56:11;12.07;;;6.25;;
38224;SDS011;24025;48.138;11.428;2022-12-07T10:59:01;10.55;;;6.75;;
38224;SDS011;24025;48.138;11.428;2022-12-07T11:08:05;9.98;;;5.68;;
38224;SDS011;24025;48.138;11.428;2022-12-07T11:21:42;5.70;;;4.13;;
38224;SDS011;24025;48.138;11.428;2022-12-07T11:24:19;6.50;;;4.45;;
38224;SDS011;24025;48.138;11.428;2022-12-07T11:37:48;7.10;;;5.07;;
38224;SDS011;24025;48.138;11.428;2022-12-07T11:46:11;10.25;;;4.50;;
38224;SDS011;24025;48.138;11.428;2022-12-07T11:51:23;5.15;;;3.75;;
38224;SDS011;24025;48.138;11.428;2022-12-07T11:53:56;4.88;;;3.58;;
38224;SDS011;24025;48.138;11.428;2022-12-07T11:56:32;5.20;;;3.95;;
38224;SDS011;24025;48.138;11.428;2022-12-07T12:07:24;9.30;;;4.78;;
38224;SDS011;24025;48.138;11.428;2022-12-07T12:09:58;6.53;;;4.32;;
38224;SDS011;24025;48.138;11.428;2022-12-07T12:15:24;12.43;;;6.82;;
38224;SDS011;24025;48.138;11.428;2022-12-07T12:18:36;17.77;;;7.43;;
38224;SDS011;24025;48.138;11.428;2022-12-07T12:21:20;10.23;;;4.10;;
38224;SDS011;24025;48.138;11.428;2022-12-07T12:24:00;5.47;;;3.67;;
38224;SDS011;24025;48.138;11.428;2022-12-07T12:26:40;4.88;;;3.17;;
38224;SDS011;24025;48.138;11.428;2022-12-07T12:29:37;6.20;;;3.90;;
38224;SDS011;24025;48.138;11.428;2022-12-07T12:37:54;5.75;;;3.92;;
38224;SDS011;24025;48.138;11.428;2022-12-07T12:43:01;6.70;;;4.20;;
38224;SDS011;24025;48.138;11.428;2022-12-07T12:45:31;6.72;;;4.03;;
38224;SDS011;24025;48.138;11.428;2022-12-07T12:51:35;6.93;;;4.22;;
38224;SDS011;24025;48.138;11.428;2022-12-07T12:54:05;6.65;;;4.28;;
38224;SDS011;24025;48.138;11.428;2022-12-07T12:56:43;12.18;;;4.93;;
38224;SDS011;24025;48.138;11.428;2022-12-07T12:59:36;12.48;;;5.40;;
38224;SDS011;24025;48.138;11.428;2022-12-07T13:13:43;10.82;;;6.20;;
38224;SDS011;24025;48.138;11.428;2022-12-07T13:18:36;7.78;;;4.78;;
38224;SDS011;24025;48.138;11.428;2022-12-07T13:31:56;8.35;;;4.15;;
38224;SDS011;24025;48.138;11.428;2022-12-07T13:34:30;7.65;;;4.55;;
38224;SDS011;24025;48.138;11.428;2022-12-07T13:37:01;9.20;;;4.07;;
38224;SDS011;24025;48.138;11.428;2022-12-07T13:39:47;9.80;;;4.30;;
38224;SDS011;24025;48.138;11.428;2022-12-07T13:42:27;14.65;;;7.15;;
38224;SDS011;24025;48.138;11.428;2022-12-07T13:45:00;8.23;;;4.57;;
38224;SDS011;24025;48.138;11.428;2022-12-07T13:47:52;13.75;;;4.50;;
38224;SDS011;24025;48.138;11.428;2022-12-07T13:50:28;6.50;;;3.88;;
38224;SDS011;24025;48.138;11.428;2022-12-07T13:53:01;5.05;;;3.22;;
38224;SDS011;24025;48.138;11.428;2022-12-07T13:55:37;7.88;;;3.72;;
38224;SDS011;24025;48.138;11.428;2022-12-07T13:58:15;5.07;;;3.50;;
38224;SDS011;24025;48.138;11.428;2022-12-07T14:00:46;7.28;;;3.30;;
38224;SDS011;24025;48.138;11.428;2022-12-07T14:05:47;7.28;;;3.30;;
38224;SDS011;24025;48.138;11.428;2022-12-07T14:08:34;5.63;;;2.78;;
38224;SDS011;24025;48.138;11.428;2022-12-07T14:11:04;6.30;;;2.97;;
38224;SDS011;24025;48.138;11.428;2022-12-07T14:13:50;7.63;;;3.47;;
38224;SDS011;24025;48.138;11.428;2022-12-07T14:18:51;6.93;;;3.05;;
38224;SDS011;24025;48.138;11.428;2022-12-07T14:21:23;5.70;;;2.88;;
38224;SDS011;24025;48.138;11.428;2022-12-07T14:24:04;9.07;;;3.72;;
38224;SDS011;24025;48.138;11.428;2022-12-07T14:26:40;5.07;;;3.58;;
38224;SDS011;24025;48.138;11.428;2022-12-07T14:31:51;7.85;;;4.43;;
38224;SDS011;24025;48.138;11.428;2022-12-07T14:34:23;13.90;;;4.18;;
38224;SDS011;24025;48.138;11.428;2022-12-07T14:36:54;9.20;;;3.88;;
38224;SDS011;24025;48.138;11.428;2022-12-07T14:39:24;9.60;;;4.20;;
38224;SDS011;24025;48.138;11.428;2022-12-07T14:41:54;6.78;;;3.75;;
38224;SDS011;24025;48.138;11.428;2022-12-07T14:44:25;8.95;;;4.68;;
38224;SDS011;24025;48.138;11.428;2022-12-07T14:46:55;11.70;;;5.07;;
38224;SDS011;24025;48.138;11.428;2022-12-07T14:49:26;6.65;;;4.35;;
38224;SDS011;24025;48.138;11.428;2022-12-07T14:51:58;12.88;;;4.63;;
38224;SDS011;24025;48.138;11.428;2022-12-07T14:54:30;7.45;;;4.65;;
38224;SDS011;24025;48.138;11.428;2022-12-07T14:57:01;10.70;;;4.00;;
38224;SDS011;24025;48.138;11.428;2022-12-07T14:59:32;6.32;;;4.00;;
38224;SDS011;24025;48.138;11.428;2022-12-07T15:02:03;9.20;;;4.00;;
38224;SDS011;24025;48.138;11.428;2022-12-07T15:04:33;7.82;;;4.28;;
38224;SDS011;24025;48.138;11.428;2022-12-07T15:07:05;10.70;;;4.40;;
38224;SDS011;24025;48.138;11.428;2022-12-07T15:09:39;7.43;;;4.18;;
38224;SDS011;24025;48.138;11.428;2022-12-07T15:12:09;9.00;;;3.80;;
38224;SDS011;24025;48.138;11.428;2022-12-07T15:14:39;9.15;;;4.22;;
38224;SDS011;24025;48.138;11.428;2022-12-07T15:17:10;8.55;;;4.30;;
38224;SDS011;24025;48.138;11.428;2022-12-07T15:19:42;9.15;;;4.25;;
38224;SDS011;24025;48.138;11.428;2022-12-07T15:22:12;7.22;;;3.95;;
38224;SDS011;24025;48.138;11.428;2022-12-07T15:24:43;9.82;;;4.32;;
38224;SDS011;24025;48.138;11.428;2022-12-07T15:27:13;6.22;;;4.00;;
38224;SDS011;24025;48.138;11.428;2022-12-07T15:29:43;6.63;;;3.95;;
38224;SDS011;24025;48.138;11.428;2022-12-07T15:32:14;10.27;;;4.00;;
38224;SDS011;24025;48.138;11.428;2022-12-07T15:34:44;12.00;;;3.53;;
38224;SDS011;24025;48.138;11.428;2022-12-07T15:37:15;5.95;;;3.25;;
38224;SDS011;24025;48.138;11.428;2022-12-07T15:39:46;6.72;;;3.63;;
38224;SDS011;24025;48.138;11.428;2022-12-07T15:42:16;5.55;;;3.53;;
38224;SDS011;24025;48.138;11.428;2022-12-07T15:44:46;7.93;;;3.20;;
38224;SDS011;24025;48.138;11.428;2022-12-07T15:47:39;4.72;;;3.42;;
38224;SDS011;24025;48.138;11.428;2022-12-07T15:50:12;8.63;;;3.47;;
38224;SDS011;24025;48.138;11.428;2022-12-07T15:52:44;9.30;;;3.45;;
38224;SDS011;24025;48.138;11.428;2022-12-07T15:55:15;6.35;;;3.50;;
38224;SDS011;24025;48.138;11.428;2022-12-07T15:57:45;4.75;;;3.28;;
38224;SDS011;24025;48.138;11.428;2022-12-07T16:00:15;13.80;;;6.45;;
38224;SDS011;24025;48.138;11.428;2022-12-07T16:02:46;8.68;;;3.95;;
38224;SDS011;24025;48.138;11.428;2022-12-07T16:05:17;6.57;;;3.75;;
38224;SDS011;24025;48.138;11.428;2022-12-07T16:07:47;7.72;;;3.90;;
38224;SDS011;24025;48.138;11.428;2022-12-07T16:10:17;6.35;;;3.65;;
38224;SDS011;24025;48.138;11.428;2022-12-07T16:12:48;7.88;;;4.47;;
38224;SDS011;24025;48.138;11.428;2022-12-07T16:15:18;10.82;;;3.97;;
38224;SDS011;24025;48.138;11.428;2022-12-07T16:17:49;8.02;;;4.32;;
38224;SDS011;24025;48.138;11.428;2022-12-07T16:20:19;7.70;;;4.07;;
38224;SDS011;24025;48.138;11.428;2022-12-07T16:22:51;10.23;;;3.85;;
38224;SDS011;24025;48.138;11.428;2022-12-07T16:25:22;8.55;;;3.63;;
38224;SDS011;24025;48.138;11.428;2022-12-07T16:27:53;6.00;;;3.70;;
38224;SDS011;24025;48.138;11.428;2022-12-07T16:30:23;8.25;;;3.83;;
38224;SDS011;24025;48.138;11.428;2022-12-07T16:32:53;7.20;;;3.13;;
38224;SDS011;24025;48.138;11.428;2022-12-07T16:35:24;9.40;;;4.22;;
38224;SDS011;24025;48.138;11.428;2022-12-07T16:37:54;14.88;;;4.00;;
38224;SDS011;24025;48.138;11.428;2022-12-07T16:40:25;6.65;;;3.97;;
38224;SDS011;24025;48.138;11.428;2022-12-07T16:42:55;8.35;;;3.95;;
38224;SDS011;24025;48.138;11.428;2022-12-07T16:45:26;7.30;;;3.85;;
38224;SDS011;24025;48.138;11.428;2022-12-07T16:47:56;9.90;;;4.40;;
38224;SDS011;24025;48.138;11.428;2022-12-07T16:50:26;11.73;;;3.55;;
38224;SDS011;24025;48.138;11.428;2022-12-07T16:52:57;8.68;;;3.42;;
38224;SDS011;24025;48.138;11.428;2022-12-07T16:55:27;9.05;;;4.13;;
38224;SDS011;24025;48.138;11.428;2022-12-07T16:57:58;7.78;;;3.67;;
38224;SDS011;24025;48.138;11.428;2022-12-07T17:00:28;8.75;;;5.07;;
38224;SDS011;24025;48.138;11.428;2022-12-07T17:02:59;10.13;;;4.47;;
38224;SDS011;24025;48.138;11.428;2022-12-07T17:05:30;12.10;;;5.53;;
38224;SDS011;24025;48.138;11.428;2022-12-07T17:08:01;11.65;;;5.25;;
38224;SDS011;24025;48.138;11.428;2022-12-07T17:10:32;9.70;;;4.40;;
38224;SDS011;24025;48.138;11.428;2022-12-07T17:13:05;8.85;;;4.70;;
38224;SDS011;24025;48.138;11.428;2022-12-07T17:15:59;11.82;;;6.53;;
38224;SDS011;24025;48.138;11.428;2022-12-07T17:18:32;13.15;;;5.43;;
38224;SDS011;24025;48.138;11.428;2022-12-07T17:21:05;12.65;;;5.20;;
38224;SDS011;24025;48.138;11.428;2022-12-07T17:23:37;12.88;;;5.75;;
38224;SDS011;24025;48.138;11.428;2022-12-07T17:26:11;12.00;;;6.55;;
38224;SDS011;24025;48.138;11.428;2022-12-07T17:28:47;19.33;;;8.57;;
38224;SDS011;24025;48.138;11.428;2022-12-07T17:31:18;11.68;;;5.78;;
38224;SDS011;24025;48.138;11.428;2022-12-07T17:33:50;16.85;;;6.50;;
38224;SDS011;24025;48.138;11.428;2022-12-07T17:36:21;12.45;;;6.28;;